Terminal Aerodrome Forecast
Issued by NWS Wichita, KS

Home | Current Version | Previous Version | Text Only | Print | Product List | Glossary On
Versions: 1 2 3 4 5 6 7 8 9 10 11 12 13 14 15 16 17
000
FTUS43 KICT 250500
TAFICT
TAF
KICT 250520Z 2506/2606 15012KT P6SM SCT200
     FM251100 19012KT P6SM SKC
     FM251500 20022G31KT P6SM FEW090 SCT250
     FM260100 18015G21KT P6SM SCT150=

USA.gov is the U.S. government's official web portal to all federal, state and local government web resources and services.